createdAt,value
2023-03-03T00:01:15.493Z,15.30
2023-03-03T00:03:42.462Z,13.17
2023-03-03T00:06:12.537Z,17.53
2023-03-03T00:08:40.269Z,15.93
2023-03-03T00:11:07.794Z,16.57
2023-03-03T00:13:44.095Z,17.27
2023-03-03T00:16:24.025Z,15.60
2023-03-03T00:18:51.696Z,15.13
2023-03-03T00:21:31.496Z,12.13
2023-03-03T00:24:21.921Z,15.87
2023-03-03T00:26:51.006Z,17.03
2023-03-03T00:29:36.566Z,18.50
2023-03-03T00:32:23.070Z,16.97
2023-03-03T00:34:51.115Z,19.53
2023-03-03T00:37:28.446Z,15.80
2023-03-03T00:40:02.175Z,16.80
2023-03-03T00:42:29.017Z,20.90
2023-03-03T00:45:00.246Z,19.50
2023-03-03T00:47:31.792Z,19.93
2023-03-03T00:50:25.172Z,16.83
2023-03-03T00:53:03.781Z,18.97
2023-03-03T00:55:31.526Z,22.90
2023-03-03T00:57:58.515Z,20.97
2023-03-03T01:00:25.738Z,17.30
2023-03-03T01:02:53.147Z,19.57
2023-03-03T01:05:21.301Z,18.90
2023-03-03T01:07:48.198Z,22.03
2023-03-03T01:10:16.585Z,22.37
2023-03-03T01:12:43.711Z,21.60
2023-03-03T01:15:12.666Z,20.83
2023-03-03T01:17:40.086Z,22.70
2023-03-03T01:20:10.893Z,26.00
2023-03-03T01:22:37.824Z,22.70
2023-03-03T01:25:05.221Z,21.07
2023-03-03T01:27:34.771Z,25.67
2023-03-03T01:30:01.783Z,25.30
2023-03-03T01:32:28.968Z,22.63
2023-03-03T01:34:56.121Z,25.63
2023-03-03T01:37:22.973Z,22.37
2023-03-03T01:39:50.561Z,24.77
2023-03-03T01:42:17.939Z,23.00
2023-03-03T01:44:46.506Z,24.83
2023-03-03T01:47:16.756Z,24.83
2023-03-03T01:49:49.670Z,25.80
2023-03-03T01:52:24.262Z,26.43
2023-03-03T01:54:55.459Z,21.53
2023-03-03T01:57:26.827Z,22.97
2023-03-03T01:59:57.504Z,27.47
2023-03-03T02:02:27.560Z,27.90
2023-03-03T02:04:54.834Z,28.07
2023-03-03T02:07:22.954Z,30.53
2023-03-03T02:09:56.029Z,26.13
2023-03-03T02:12:29.978Z,26.70
2023-03-03T02:14:58.197Z,23.63
2023-03-03T02:17:25.525Z,25.20
2023-03-03T02:19:57.879Z,28.30
2023-03-03T02:22:34.488Z,24.70
2023-03-03T02:25:03.391Z,24.50
2023-03-03T02:27:32.783Z,25.10
2023-03-03T02:30:09.656Z,27.83
2023-03-03T02:32:36.580Z,24.40
2023-03-03T02:35:27.339Z,33.20
2023-03-03T02:37:56.004Z,26.60
2023-03-03T02:40:26.543Z,27.10
2023-03-03T02:42:57.364Z,27.43
2023-03-03T02:45:24.241Z,34.40
2023-03-03T02:47:52.009Z,27.30
2023-03-03T02:50:18.953Z,28.83
2023-03-03T02:52:45.834Z,31.80
2023-03-03T02:55:12.679Z,26.23
2023-03-03T02:57:39.621Z,28.63
2023-03-03T03:00:09.501Z,28.80
2023-03-03T03:02:36.339Z,30.80
2023-03-03T03:05:03.363Z,29.83
2023-03-03T03:07:30.181Z,31.70
2023-03-03T03:09:57.052Z,33.73
2023-03-03T03:12:23.886Z,31.50
2023-03-03T03:14:50.703Z,32.90
2023-03-03T03:17:18.897Z,26.47
2023-03-03T03:19:45.794Z,28.50
2023-03-03T03:22:12.661Z,27.87
2023-03-03T03:24:39.708Z,26.20
2023-03-03T03:27:06.564Z,29.33
2023-03-03T03:29:33.380Z,26.63
2023-03-03T03:32:00.328Z,29.63
2023-03-03T03:34:28.606Z,30.43
2023-03-03T03:36:55.529Z,25.43
2023-03-03T03:39:22.337Z,26.03
2023-03-03T03:41:49.159Z,30.00
2023-03-03T03:44:15.921Z,27.17
2023-03-03T03:46:42.770Z,27.23
2023-03-03T03:49:09.623Z,29.30
2023-03-03T03:51:41.231Z,30.37
2023-03-03T03:54:08.437Z,23.80
2023-03-03T03:56:35.318Z,28.87
2023-03-03T03:59:02.478Z,28.17
2023-03-03T04:01:29.360Z,31.07
2023-03-03T04:03:56.321Z,31.50
2023-03-03T04:06:23.178Z,31.40
2023-03-03T04:08:51.434Z,33.13
2023-03-03T04:11:18.320Z,33.27
2023-03-03T04:13:45.248Z,34.03
2023-03-03T04:16:12.377Z,36.83
2023-03-03T04:18:39.388Z,32.70
2023-03-03T04:21:06.359Z,34.53
2023-03-03T04:23:33.142Z,33.57
2023-03-03T04:26:02.617Z,31.77
2023-03-03T04:28:29.467Z,33.23
2023-03-03T04:30:56.324Z,36.30
2023-03-03T04:33:23.250Z,35.20
2023-03-03T04:35:51.295Z,34.60
2023-03-03T04:38:18.255Z,37.07
2023-03-03T04:40:45.558Z,35.83
2023-03-03T04:43:14.546Z,32.37
2023-03-03T04:45:41.512Z,35.10
2023-03-03T04:48:08.399Z,36.30
2023-03-03T04:50:35.212Z,36.87
2023-03-03T04:53:02.368Z,38.57
2023-03-03T04:55:29.169Z,38.50
2023-03-03T04:57:56.031Z,34.13
2023-03-03T05:00:24.485Z,37.10
2023-03-03T05:02:51.512Z,34.37
2023-03-03T05:05:18.723Z,39.13
2023-03-03T05:07:45.690Z,38.33
2023-03-03T05:10:12.476Z,33.80
2023-03-03T05:12:39.366Z,39.53
2023-03-03T05:15:07.531Z,40.73
2023-03-03T05:17:35.782Z,37.13
2023-03-03T05:20:03.290Z,37.80
2023-03-03T05:22:30.168Z,41.93
2023-03-03T05:24:57.658Z,43.17
2023-03-03T05:27:24.534Z,43.13
2023-03-03T05:29:51.596Z,38.63
2023-03-03T05:32:18.572Z,42.67
2023-03-03T05:34:46.940Z,41.93
2023-03-03T05:37:15.465Z,43.97
2023-03-03T05:39:44.563Z,38.43
2023-03-03T05:42:12.999Z,42.07
2023-03-03T05:44:40.012Z,45.77
2023-03-03T05:47:07.214Z,41.97
2023-03-03T05:49:34.438Z,43.03
2023-03-03T05:52:03.025Z,42.67
2023-03-03T05:54:29.938Z,44.47
2023-03-03T05:56:57.442Z,39.33
2023-03-03T05:59:24.743Z,42.00
2023-03-03T06:01:51.712Z,42.60
2023-03-03T06:04:18.549Z,43.73
2023-03-03T06:06:45.351Z,45.73
2023-03-03T06:09:13.632Z,44.33
2023-03-03T06:11:40.452Z,41.30
2023-03-03T06:14:07.380Z,42.97
2023-03-03T06:16:34.251Z,38.80
2023-03-03T06:19:01.478Z,42.63
2023-03-03T06:21:28.376Z,42.70
2023-03-03T06:23:55.230Z,46.33
2023-03-03T06:26:23.856Z,42.47
2023-03-03T06:28:53.956Z,37.47
2023-03-03T06:31:20.907Z,42.17
2023-03-03T06:33:47.821Z,44.47
2023-03-03T06:36:14.772Z,43.97
2023-03-03T06:38:41.639Z,40.93
2023-03-03T06:41:08.614Z,41.67
2023-03-03T06:43:37.145Z,40.73
2023-03-03T06:46:04.659Z,39.33
2023-03-03T06:48:32.701Z,40.73
2023-03-03T06:51:00.808Z,37.47
2023-03-03T06:53:28.243Z,40.90
2023-03-03T06:55:56.817Z,41.60
2023-03-03T06:58:24.681Z,36.40
2023-03-03T07:00:56.958Z,35.53
2023-03-03T07:03:25.380Z,39.10
2023-03-03T07:05:53.589Z,34.27
2023-03-03T07:08:23.224Z,32.17
2023-03-03T07:10:51.700Z,40.87
2023-03-03T07:13:22.042Z,36.67
2023-03-03T07:15:50.337Z,36.17
2023-03-03T07:18:33.927Z,35.13
2023-03-03T07:21:14.633Z,37.30
2023-03-03T07:23:44.601Z,33.70
2023-03-03T07:26:13.518Z,35.13
2023-03-03T07:28:42.323Z,42.00
2023-03-03T07:31:27.409Z,42.00
2023-03-03T07:33:56.671Z,36.33
2023-03-03T07:36:28.062Z,33.20
2023-03-03T07:38:57.276Z,33.10
2023-03-03T07:41:24.192Z,33.93
2023-03-03T07:43:55.011Z,34.83
2023-03-03T07:46:29.309Z,38.17
2023-03-03T07:48:58.790Z,32.37
2023-03-03T07:51:28.152Z,35.10
2023-03-03T07:54:14.045Z,34.13
2023-03-03T07:56:41.102Z,39.50
2023-03-03T07:59:21.115Z,35.30
2023-03-03T08:01:52.183Z,32.30
2023-03-03T08:04:24.966Z,32.43
2023-03-03T08:06:54.027Z,34.57
2023-03-03T08:09:44.827Z,29.47
2023-03-03T08:12:27.081Z,34.67
2023-03-03T08:14:55.451Z,34.73
2023-03-03T08:17:24.262Z,30.20
2023-03-03T08:19:55.000Z,32.03
2023-03-03T08:22:36.029Z,31.13
2023-03-03T08:25:03.078Z,30.03
2023-03-03T08:27:29.953Z,33.90
2023-03-03T08:29:56.790Z,32.33
2023-03-03T08:32:24.001Z,32.20
2023-03-03T08:34:52.256Z,28.70
2023-03-03T08:37:19.072Z,33.90
2023-03-03T08:39:46.420Z,28.33
2023-03-03T08:42:15.879Z,28.87
2023-03-03T08:44:43.059Z,31.97
2023-03-03T08:47:09.830Z,34.17
2023-03-03T08:49:36.583Z,32.93
2023-03-03T08:52:05.068Z,29.73
2023-03-03T08:54:32.673Z,33.30
2023-03-03T08:56:59.567Z,30.43
2023-03-03T08:59:26.462Z,30.67
2023-03-03T09:01:53.341Z,31.33
2023-03-03T09:04:20.216Z,30.53
2023-03-03T09:06:47.387Z,31.17
2023-03-03T09:09:15.598Z,28.63
2023-03-03T09:11:43.587Z,32.00
2023-03-03T09:14:12.548Z,31.90
2023-03-03T09:16:40.868Z,26.53
2023-03-03T09:19:20.862Z,28.07
2023-03-03T09:21:47.827Z,23.47
2023-03-03T09:24:24.950Z,24.30
2023-03-03T09:26:53.084Z,25.47
2023-03-03T09:29:25.557Z,21.73
2023-03-03T09:31:55.062Z,21.17
2023-03-03T09:34:24.945Z,19.47
2023-03-03T09:36:52.828Z,21.70
2023-03-03T09:39:23.900Z,19.07
2023-03-03T09:42:14.732Z,20.00
2023-03-03T09:45:15.083Z,20.43
2023-03-03T09:47:53.745Z,18.97
2023-03-03T09:50:33.571Z,22.93
2023-03-03T09:53:13.105Z,18.60
2023-03-03T09:55:50.563Z,20.77
2023-03-03T09:58:29.002Z,19.20
2023-03-03T10:01:05.968Z,19.20
2023-03-03T10:03:56.838Z,21.07
2023-03-03T10:06:29.015Z,20.77
2023-03-03T10:09:09.689Z,19.47
2023-03-03T10:11:45.269Z,18.23
2023-03-03T10:14:33.976Z,18.93
2023-03-03T10:17:12.516Z,16.17
2023-03-03T10:19:41.661Z,14.10
2023-03-03T10:22:20.784Z,19.27
2023-03-03T10:25:02.238Z,16.30
2023-03-03T10:27:46.910Z,17.00
2023-03-03T10:30:33.146Z,17.87
2023-03-03T10:33:12.583Z,16.47
2023-03-03T10:36:06.933Z,17.63
2023-03-03T10:38:59.106Z,17.00
2023-03-03T10:41:51.414Z,16.83
2023-03-03T10:44:31.985Z,19.60
2023-03-03T10:47:18.060Z,15.73
2023-03-03T10:49:56.140Z,18.07
2023-03-03T10:52:33.917Z,16.90
2023-03-03T10:55:17.504Z,18.03
2023-03-03T10:58:04.985Z,15.87
2023-03-03T11:00:38.992Z,16.03
2023-03-03T11:03:58.086Z,14.00
2023-03-03T11:06:30.323Z,14.03
2023-03-03T11:09:09.047Z,14.53
2023-03-03T11:11:41.502Z,16.70
2023-03-03T11:14:23.074Z,13.57
2023-03-03T11:17:02.886Z,15.73
2023-03-03T11:19:59.631Z,13.80
2023-03-03T11:22:37.775Z,13.53
2023-03-03T11:25:16.676Z,13.43
2023-03-03T11:28:11.934Z,13.40
2023-03-03T11:30:50.477Z,11.80
2023-03-03T11:33:23.163Z,12.93
2023-03-03T11:35:55.486Z,13.03
2023-03-03T11:38:40.776Z,12.83
2023-03-03T11:41:16.691Z,13.37
2023-03-03T11:43:47.445Z,13.43
2023-03-03T11:46:17.655Z,16.83
2023-03-03T11:48:53.441Z,14.40
2023-03-03T11:51:27.311Z,14.33
2023-03-03T11:53:59.472Z,13.27
2023-03-03T11:56:30.070Z,12.73
2023-03-03T11:59:17.350Z,14.17
2023-03-03T12:01:49.485Z,15.20
2023-03-03T12:04:22.234Z,14.20
2023-03-03T12:07:09.741Z,16.20
2023-03-03T12:09:52.980Z,16.87
2023-03-03T12:12:24.232Z,23.73
2023-03-03T12:15:02.348Z,14.20
2023-03-03T12:17:46.977Z,19.67
2023-03-03T12:20:20.554Z,26.63
2023-03-03T12:23:06.531Z,14.77
2023-03-03T12:25:39.514Z,15.20
2023-03-03T12:28:11.930Z,13.37
2023-03-03T12:30:57.872Z,14.40
2023-03-03T12:33:34.280Z,15.07
2023-03-03T12:36:14.406Z,16.30
2023-03-03T12:38:54.265Z,14.17
2023-03-03T12:41:28.785Z,13.40
2023-03-03T12:44:01.683Z,17.00
2023-03-03T12:46:43.807Z,14.23
2023-03-03T12:49:10.618Z,14.67
2023-03-03T12:51:58.841Z,13.20
2023-03-03T12:54:37.246Z,19.80
2023-03-03T12:57:13.770Z,14.60
2023-03-03T12:59:52.108Z,14.03
2023-03-03T13:02:43.117Z,12.50
2023-03-03T13:05:21.513Z,11.53
2023-03-03T13:07:58.051Z,13.13
2023-03-03T13:10:34.485Z,12.33
2023-03-03T13:13:09.539Z,12.70
2023-03-03T13:15:48.922Z,11.20
2023-03-03T13:18:31.487Z,15.37
2023-03-03T13:21:06.549Z,15.73
2023-03-03T13:23:46.598Z,12.17
2023-03-03T13:26:20.363Z,12.73
2023-03-03T13:29:03.137Z,12.17
2023-03-03T13:31:33.502Z,44.47
2023-03-03T13:34:02.436Z,13.87
2023-03-03T13:36:34.690Z,12.37
2023-03-03T13:39:11.967Z,10.37
2023-03-03T13:41:46.946Z,11.37
2023-03-03T13:44:20.244Z,13.83
2023-03-03T13:47:03.041Z,15.77
2023-03-03T13:49:47.940Z,23.47
2023-03-03T13:52:21.278Z,18.03
2023-03-03T13:55:03.591Z,17.60
2023-03-03T13:57:45.787Z,16.53
2023-03-03T14:00:21.621Z,17.27
2023-03-03T14:03:18.248Z,18.73
2023-03-03T14:05:48.650Z,16.00
2023-03-03T14:08:27.635Z,14.47
2023-03-03T14:11:10.091Z,16.33
2023-03-03T14:13:48.435Z,13.73
2023-03-03T14:16:20.432Z,7.70
2023-03-03T14:18:55.972Z,6.73
2023-03-03T14:21:29.531Z,7.37
2023-03-03T14:24:02.950Z,8.17
2023-03-03T14:26:31.266Z,8.03
2023-03-03T14:29:29.168Z,10.53
2023-03-03T14:31:56.592Z,7.70
2023-03-03T14:34:36.135Z,11.57
2023-03-03T14:37:23.840Z,11.27
2023-03-03T14:40:18.818Z,14.13
2023-03-03T14:42:54.861Z,15.67
2023-03-03T14:45:31.420Z,14.97
2023-03-03T14:47:59.524Z,15.13
2023-03-03T14:50:37.610Z,11.63
2023-03-03T14:53:14.686Z,11.63
2023-03-03T14:55:43.477Z,9.80
2023-03-03T14:58:35.231Z,9.33
2023-03-03T15:01:20.805Z,15.17
2023-03-03T15:03:52.462Z,7.97
2023-03-03T15:06:34.750Z,7.57
2023-03-03T15:09:38.455Z,8.67
2023-03-03T15:12:20.294Z,10.63
2023-03-03T15:14:50.392Z,7.93
2023-03-03T15:17:36.255Z,7.43
2023-03-03T15:20:38.783Z,8.73
2023-03-03T15:23:16.095Z,7.30
2023-03-03T15:25:52.901Z,9.50
2023-03-03T15:28:32.758Z,10.10
2023-03-03T15:31:08.352Z,15.03
2023-03-03T15:33:46.065Z,10.13
2023-03-03T15:36:21.162Z,8.53
2023-03-03T15:38:58.487Z,7.40
2023-03-03T15:41:33.581Z,9.17
2023-03-03T15:44:12.389Z,8.47
2023-03-03T15:46:56.119Z,5.97
2023-03-03T15:49:49.547Z,6.93
2023-03-03T15:52:28.808Z,9.83
2023-03-03T15:55:12.348Z,6.57
2023-03-03T15:57:52.811Z,6.20
2023-03-03T16:00:36.700Z,8.93
2023-03-03T16:03:13.668Z,7.63
2023-03-03T16:05:49.626Z,6.50
2023-03-03T16:08:19.506Z,4.73
2023-03-03T16:10:55.631Z,6.50
2023-03-03T16:13:35.661Z,7.03
2023-03-03T16:16:27.507Z,6.47
2023-03-03T16:19:18.740Z,6.93
2023-03-03T16:22:14.222Z,6.53
2023-03-03T16:24:54.719Z,5.83
2023-03-03T16:27:27.335Z,6.60
2023-03-03T16:30:06.088Z,6.17
2023-03-03T16:32:40.219Z,5.37
2023-03-03T16:35:22.699Z,4.50
2023-03-03T16:37:57.980Z,5.70
2023-03-03T16:40:27.692Z,5.03
2023-03-03T16:43:03.853Z,3.83
2023-03-03T16:45:35.422Z,3.70
2023-03-03T16:48:27.186Z,3.63
2023-03-03T16:51:23.360Z,4.60
2023-03-03T16:54:02.143Z,5.47
2023-03-03T16:56:36.061Z,4.63
2023-03-03T16:59:39.866Z,5.20
2023-03-03T17:02:27.801Z,5.57
2023-03-03T17:05:03.033Z,5.00
2023-03-03T17:07:42.198Z,5.40
2023-03-03T17:10:21.839Z,4.57
2023-03-03T17:13:07.451Z,5.37
2023-03-03T17:15:42.690Z,5.97
2023-03-03T17:18:18.491Z,7.73
2023-03-03T17:20:48.693Z,6.70
2023-03-03T17:23:34.508Z,5.10
2023-03-03T17:26:12.880Z,5.40
2023-03-03T17:28:48.697Z,5.63
2023-03-03T17:31:26.787Z,6.90
2023-03-03T17:34:16.194Z,5.30
2023-03-03T17:36:55.039Z,6.10
2023-03-03T17:39:38.524Z,7.40
2023-03-03T17:42:14.438Z,8.37
2023-03-03T17:44:50.311Z,6.07
2023-03-03T17:47:26.934Z,5.17
2023-03-03T17:50:07.747Z,5.77
2023-03-03T17:52:59.902Z,10.03
2023-03-03T17:55:50.131Z,7.43
2023-03-03T17:58:53.488Z,7.97
2023-03-03T18:01:30.501Z,7.27
2023-03-03T18:04:27.577Z,7.67
2023-03-03T18:07:25.046Z,7.13
2023-03-03T18:10:15.127Z,7.00
2023-03-03T18:12:51.773Z,7.53
2023-03-03T18:15:42.778Z,7.00
2023-03-03T18:18:30.066Z,6.50
2023-03-03T18:21:05.175Z,7.73
2023-03-03T18:23:41.840Z,8.60
2023-03-03T18:26:34.403Z,8.27
2023-03-03T18:29:20.317Z,9.83
2023-03-03T18:32:18.963Z,8.80
2023-03-03T18:34:46.171Z,10.23
2023-03-03T18:37:39.067Z,7.30
2023-03-03T18:40:28.092Z,9.07
2023-03-03T18:42:55.288Z,10.00
2023-03-03T18:45:50.006Z,9.00
2023-03-03T18:48:17.416Z,6.70
2023-03-03T18:53:31.528Z,10.33
2023-03-03T18:56:00.295Z,11.07
2023-03-03T18:58:40.753Z,8.23
2023-03-03T19:01:36.107Z,10.37
2023-03-03T19:04:18.261Z,11.90
2023-03-03T19:07:03.120Z,9.57
2023-03-03T19:09:52.496Z,7.43
2023-03-03T19:12:39.825Z,9.90
2023-03-03T19:15:38.024Z,9.03
2023-03-03T19:18:13.871Z,8.20
2023-03-03T19:20:43.145Z,10.10
2023-03-03T19:23:14.596Z,9.07
2023-03-03T19:25:43.068Z,10.70
2023-03-03T19:28:29.163Z,10.77
2023-03-03T19:30:59.022Z,10.83
2023-03-03T19:33:38.482Z,10.23
2023-03-03T19:36:22.694Z,10.17
2023-03-03T19:39:04.770Z,11.03
2023-03-03T19:41:48.001Z,9.30
2023-03-03T19:44:29.882Z,10.60
2023-03-03T19:47:00.698Z,10.77
2023-03-03T19:49:47.939Z,10.20
2023-03-03T19:52:22.455Z,10.70
2023-03-03T19:55:03.016Z,10.83
2023-03-03T19:57:43.947Z,10.53
2023-03-03T20:00:20.142Z,12.90
2023-03-03T20:02:57.069Z,12.57
2023-03-03T20:05:32.266Z,14.40
2023-03-03T20:08:04.223Z,11.53
2023-03-03T20:10:47.013Z,13.93
2023-03-03T20:13:35.254Z,12.37
2023-03-03T20:16:14.949Z,11.57
2023-03-03T20:19:02.498Z,13.37
2023-03-03T20:21:33.376Z,12.40
2023-03-03T20:24:28.273Z,15.53
2023-03-03T20:26:59.724Z,14.73
2023-03-03T20:30:08.419Z,15.97
2023-03-03T20:33:15.629Z,16.00
2023-03-03T20:35:52.204Z,11.67
2023-03-03T20:38:28.791Z,12.83
2023-03-03T20:41:06.734Z,10.67
2023-03-03T20:43:50.319Z,13.10
2023-03-03T20:46:26.022Z,10.97
2023-03-03T20:49:09.582Z,11.27
2023-03-03T20:51:43.774Z,12.27
2023-03-03T20:54:21.354Z,12.53
2023-03-03T20:56:54.731Z,12.17
2023-03-03T20:59:27.149Z,11.67
2023-03-03T21:02:04.332Z,14.13
2023-03-03T21:04:33.424Z,15.90
2023-03-03T21:07:03.191Z,15.63
2023-03-03T21:09:31.971Z,11.43
2023-03-03T21:11:59.954Z,15.00
2023-03-03T21:14:28.702Z,29.87
2023-03-03T21:16:58.488Z,18.67
2023-03-03T21:19:30.026Z,11.97
2023-03-03T21:21:59.791Z,13.00
2023-03-03T21:24:47.619Z,11.93
2023-03-03T21:27:26.009Z,12.17
2023-03-03T21:30:03.393Z,12.70
2023-03-03T21:32:40.936Z,18.17
2023-03-03T21:35:10.022Z,14.40
2023-03-03T21:37:47.498Z,14.00
2023-03-03T21:40:17.376Z,15.97
2023-03-03T21:42:44.988Z,14.43
2023-03-03T21:45:13.385Z,13.60
2023-03-03T21:47:41.550Z,13.77
2023-03-03T21:50:11.471Z,13.07
2023-03-03T21:52:38.566Z,12.77
2023-03-03T21:55:06.630Z,13.63
2023-03-03T21:57:35.220Z,10.93
2023-03-03T22:00:02.192Z,12.83
2023-03-03T22:02:29.117Z,12.77
2023-03-03T22:04:57.520Z,14.63
2023-03-03T22:07:24.434Z,13.93
2023-03-03T22:09:51.321Z,10.70
2023-03-03T22:12:18.407Z,11.83
2023-03-03T22:14:45.388Z,13.83
2023-03-03T22:17:12.316Z,12.07
2023-03-03T22:19:39.181Z,18.77
2023-03-03T22:22:07.422Z,13.90
2023-03-03T22:24:34.212Z,13.83
2023-03-03T22:27:01.077Z,14.80
2023-03-03T22:29:27.937Z,11.77
2023-03-03T22:31:54.903Z,17.90
2023-03-03T22:34:21.880Z,11.97
2023-03-03T22:36:48.690Z,11.33
2023-03-03T22:39:16.897Z,14.20
2023-03-03T22:41:43.806Z,14.03
2023-03-03T22:44:10.693Z,13.47
2023-03-03T22:46:37.583Z,11.97
2023-03-03T22:49:04.677Z,15.90
2023-03-03T22:51:31.651Z,12.33
2023-03-03T22:53:58.799Z,13.50
2023-03-03T22:56:27.067Z,15.17
2023-03-03T22:58:53.961Z,13.30
2023-03-03T23:01:20.736Z,15.90
2023-03-03T23:03:47.680Z,11.67
2023-03-03T23:06:14.544Z,18.50
2023-03-03T23:08:44.334Z,13.23
2023-03-03T23:11:11.231Z,13.43
2023-03-03T23:13:39.433Z,13.47
2023-03-03T23:16:06.983Z,17.70
2023-03-03T23:18:34.093Z,15.63
2023-03-03T23:21:00.964Z,17.63
2023-03-03T23:23:29.606Z,15.20
2023-03-03T23:25:56.968Z,14.43
2023-03-03T23:28:23.916Z,15.33
2023-03-03T23:30:52.500Z,14.80
2023-03-03T23:33:19.453Z,17.47
2023-03-03T23:35:46.387Z,17.20
2023-03-03T23:38:15.528Z,18.73
2023-03-03T23:40:42.430Z,16.73
2023-03-03T23:43:09.357Z,13.33
2023-03-03T23:45:36.338Z,17.10
2023-03-03T23:48:05.481Z,18.37
2023-03-03T23:50:33.146Z,15.53
2023-03-03T23:53:00.133Z,16.13
2023-03-03T23:55:27.053Z,15.63
2023-03-03T23:57:54.931Z,20.77
